Elmira, Illinois
Current Conditions -  °F | °C
As of 1:55 PM on Wednesday 28 Jan 2015 (Local Time) from KC75 Reporting Station
Clear Clear  
Wind Chill: 26°   Ceiling: Unl
Heat Index: 36°   Visibility: 10mi
Dew Point: 28°   Wind: 18mph
Humidity: 72%   Direction: 150°SSE
Pressure: 30.05"   Gusts: NA
Location:  41.1043°N, 89.8577°W
Report Text: KC75 281955Z AUTO 15016KT 10SM CLR 02/M02 A3005 RMK AO2 T00221024
Loading
Personal Weather Stations






























Interactive Weather Map New forecast layout! Learn more

10-Day Weather Forecast

Advertisements
Track Severe Weather on mobile